Time;durP1;ratioP1;P1;durP2;ratioP2;P2;SDS_P1;SDS_P2;PMS_P1;PMS_P2;Temp;Humidity;BMP_temperature;BMP_pressure;BME280_temperature;BME280_humidity;BME280_pressure;Samples;Min_cycle;Max_cycle;Signal;HPM_P1;HPM_P2
2021/11/30 00:01:21;;;;;;;43.95;25.70;;;;;;;0.72;100.00;100408.66;4873424;29;20431;-76
2021/11/30 00:03:47;;;;;;;44.05;27.35;;;;;;;0.83;100.00;100403.69;4875329;29;20037;-76
2021/11/30 00:06:13;;;;;;;45.80;26.20;;;;;;;0.93;100.00;100399.59;4858355;29;20160;-76
2021/11/30 00:08:40;;;;;;;43.67;27.02;;;;;;;0.90;100.00;100386.88;4892976;29;20532;-76
2021/11/30 00:11:08;;;;;;;44.53;26.05;;;;;;;0.96;100.00;100386.53;4892258;29;20039;-75
2021/11/30 00:13:35;;;;;;;41.67;25.88;;;;;;;1.07;100.00;100370.34;4867554;29;20059;-75
2021/11/30 00:16:01;;;;;;;43.28;27.00;;;;;;;1.05;100.00;100379.94;4877041;29;20108;-75
2021/11/30 00:18:32;;;;;;;40.10;25.90;;;;;;;1.09;100.00;100368.53;4877074;29;20032;-75
2021/11/30 00:21:00;;;;;;;39.47;24.52;;;;;;;1.06;100.00;100368.69;4875567;29;20116;-76
2021/11/30 00:23:26;;;;;;;39.85;24.98;;;;;;;1.01;100.00;100357.00;4891049;29;20100;-76
2021/11/30 00:25:51;;;;;;;41.47;23.42;;;;;;;1.07;100.00;100359.19;4892876;29;20040;-76
2021/11/30 00:28:17;;;;;;;38.05;23.40;;;;;;;1.07;100.00;100352.25;4877168;29;20052;-75
2021/11/30 00:30:43;;;;;;;37.65;23.23;;;;;;;1.16;100.00;100340.53;4878468;29;20562;-75
2021/11/30 00:33:08;;;;;;;34.70;22.73;;;;;;;1.23;100.00;100343.59;4861565;29;20127;-76
2021/11/30 00:35:35;;;;;;;37.13;22.58;;;;;;;1.20;100.00;100341.19;4878222;29;20049;-76
2021/11/30 00:38:02;;;;;;;36.80;22.13;;;;;;;1.30;100.00;100344.84;4881160;29;20044;-76
2021/11/30 00:40:28;;;;;;;37.25;23.08;;;;;;;1.30;100.00;100325.00;4877749;29;20139;-77
2021/11/30 00:42:56;;;;;;;40.85;23.17;;;;;;;1.35;100.00;100320.34;4887373;29;20044;-76
2021/11/30 00:45:23;;;;;;;35.05;22.65;;;;;;;1.39;100.00;100317.59;4888122;29;20043;-74
2021/11/30 00:47:55;;;;;;;37.65;24.35;;;;;;;1.35;100.00;100319.53;4908972;29;20045;-76
2021/11/30 00:50:23;;;;;;;39.22;23.67;;;;;;;1.39;100.00;100312.41;4878452;29;20067;-76
2021/11/30 00:52:50;;;;;;;40.00;24.02;;;;;;;1.38;100.00;100305.63;4894172;29;20045;-76
2021/11/30 00:55:17;;;;;;;39.47;24.23;;;;;;;1.45;100.00;100299.94;4885024;29;20567;-76
2021/11/30 00:57:43;;;;;;;39.22;23.80;;;;;;;1.50;100.00;100302.22;4901771;29;20040;-76
2021/11/30 01:00:13;;;;;;;39.63;22.60;;;;;;;1.46;100.00;100295.59;4885352;29;20562;-76
2021/11/30 01:02:39;;;;;;;38.28;23.77;;;;;;;1.42;100.00;100276.88;4867788;29;20131;-76
2021/11/30 01:05:07;;;;;;;37.65;24.05;;;;;;;1.43;100.00;100278.53;4864308;29;20072;-77
2021/11/30 01:07:35;;;;;;;41.50;23.83;;;;;;;1.46;100.00;100280.91;4892237;29;20064;-76
2021/11/30 01:10:05;;;;;;;43.50;23.35;;;;;;;1.46;100.00;100280.09;4892795;29;20043;-77
2021/11/30 01:12:31;;;;;;;37.50;23.63;;;;;;;1.45;100.00;100276.69;4878497;29;20037;-75
2021/11/30 01:14:57;;;;;;;41.60;24.25;;;;;;;1.53;100.00;100274.41;4897790;29;20116;-76
2021/11/30 01:17:22;;;;;;;40.10;24.17;;;;;;;1.52;100.00;100256.41;4879748;29;20049;-76
2021/11/30 01:19:48;;;;;;;38.25;23.58;;;;;;;1.59;100.00;100260.28;4878850;29;20130;-77
2021/11/30 01:22:13;;;;;;;37.47;22.80;;;;;;;1.53;100.00;100227.06;4877531;29;20155;-76
2021/11/30 01:24:39;;;;;;;42.15;24.00;;;;;;;1.60;100.00;100236.09;4883243;29;20047;-75
2021/11/30 01:27:05;;;;;;;41.10;22.65;;;;;;;1.55;100.00;100227.78;4881871;29;20045;-76
2021/11/30 01:29:30;;;;;;;37.75;22.67;;;;;;;1.64;100.00;100234.94;4892262;29;20033;-76
2021/11/30 01:31:56;;;;;;;35.88;22.23;;;;;;;1.60;100.00;100222.31;4897318;29;20110;-76
2021/11/30 01:34:22;;;;;;;35.83;22.90;;;;;;;1.61;100.00;100224.78;4912300;29;20045;-76
2021/11/30 01:36:48;;;;;;;37.83;22.17;;;;;;;1.63;100.00;100214.38;4905227;29;20383;-75
2021/11/30 01:39:14;;;;;;;37.47;22.10;;;;;;;1.62;100.00;100200.63;4900694;29;20037;-75
2021/11/30 01:41:42;;;;;;;37.15;21.35;;;;;;;1.68;100.00;100210.53;4885604;29;20132;-74
2021/11/30 01:44:12;;;;;;;37.17;22.02;;;;;;;1.74;100.00;100219.66;4900387;29;20040;-76
2021/11/30 01:46:54;;;;;;;36.08;22.05;;;;;;;1.80;100.00;100214.06;4897952;29;20628;-76
2021/11/30 01:49:30;;;;;;;34.63;21.02;;;;;;;1.83;100.00;100213.00;4863211;29;20037;-76
2021/11/30 01:51:55;;;;;;;33.28;20.75;;;;;;;1.87;100.00;100212.72;4897173;29;20123;-76
2021/11/30 01:54:21;;;;;;;34.90;20.63;;;;;;;1.95;100.00;100196.69;4893686;29;20159;-75
2021/11/30 01:56:46;;;;;;;28.05;19.48;;;;;;;1.95;100.00;100201.84;4879564;29;20036;-76
2021/11/30 01:59:12;;;;;;;31.05;19.27;;;;;;;2.01;100.00;100185.91;4863705;29;20528;-75
2021/11/30 02:01:38;;;;;;;26.75;19.65;;;;;;;2.04;100.00;100174.53;4894517;29;20043;-76
2021/11/30 02:04:05;;;;;;;29.52;19.63;;;;;;;2.10;100.00;100181.88;4880553;29;20040;-76
2021/11/30 02:06:31;;;;;;;30.13;19.33;;;;;;;2.16;100.00;100186.63;4895480;29;20040;-76
2021/11/30 02:08:57;;;;;;;31.55;20.23;;;;;;;2.13;100.00;100166.16;4896315;29;20500;-76
2021/11/30 02:11:22;;;;;;;30.90;19.02;;;;;;;2.11;100.00;100150.72;4877080;29;20388;-76
2021/11/30 02:13:49;;;;;;;28.52;17.65;;;;;;;2.06;100.00;100139.84;4896143;29;20059;-76
2021/11/30 02:16:18;;;;;;;25.05;18.17;;;;;;;1.95;100.00;100132.84;4894892;29;20041;-76
2021/11/30 02:18:44;;;;;;;23.98;16.60;;;;;;;1.87;100.00;100129.97;4880716;29;20036;-76
2021/11/30 02:21:11;;;;;;;29.42;17.08;;;;;;;1.88;100.00;100129.00;4893142;29;20472;-76
2021/11/30 02:23:49;;;;;;;25.13;17.05;;;;;;;1.84;100.00;100114.63;4880392;29;20037;-76
2021/11/30 02:26:16;;;;;;;23.70;16.67;;;;;;;1.79;100.00;100095.19;4880662;29;20104;-75
2021/11/30 02:28:48;;;;;;;20.67;15.95;;;;;;;1.85;100.00;100090.44;4883205;29;20048;-76
2021/11/30 02:31:16;;;;;;;23.50;16.20;;;;;;;1.77;100.00;100077.19;4891535;29;20028;-75
2021/11/30 02:33:42;;;;;;;22.83;16.02;;;;;;;1.77;100.00;100058.28;4878348;29;20072;-77
2021/11/30 02:39:09;;;;;;;23.08;15.55;;;;;;;1.79;100.00;100041.75;4877273;29;20051;-77
2021/11/30 02:41:36;;;;;;;22.80;14.80;;;;;;;1.82;100.00;100023.41;4893708;29;20047;-76
2021/11/30 02:44:03;;;;;;;19.77;13.95;;;;;;;1.80;100.00;100027.88;4882324;29;20393;-76
2021/11/30 02:46:37;;;;;;;19.95;13.45;;;;;;;1.72;100.00;100009.50;4896149;29;20123;-76
2021/11/30 02:49:07;;;;;;;24.42;14.13;;;;;;;1.81;100.00;100018.34;4894689;29;20063;-76
2021/11/30 02:51:34;;;;;;;19.13;13.38;;;;;;;1.84;100.00;100005.22;4888069;29;20044;-76
2021/11/30 02:54:05;;;;;;;18.70;13.07;;;;;;;1.82;100.00;100002.72;4898179;29;20538;-76
2021/11/30 02:56:40;;;;;;;19.50;12.63;;;;;;;1.87;100.00;99981.72;4880737;29;20051;-76
2021/11/30 02:59:06;;;;;;;17.58;12.30;;;;;;;1.87;100.00;99972.19;4880508;29;20684;-76
2021/11/30 03:01:33;;;;;;;15.18;11.40;;;;;;;1.88;100.00;99963.50;4894528;29;20047;-76
2021/11/30 03:03:59;;;;;;;15.40;11.88;;;;;;;1.96;100.00;99957.78;4897283;29;20036;-76
2021/11/30 03:06:24;;;;;;;17.95;12.00;;;;;;;1.95;100.00;99951.78;4869521;29;20060;-75
2021/11/30 03:08:50;;;;;;;17.40;11.32;;;;;;;1.97;100.00;99950.84;4881756;29;20037;-76
2021/11/30 03:11:16;;;;;;;17.45;11.80;;;;;;;2.01;100.00;99937.56;4879354;29;20079;-76
2021/11/30 03:13:41;;;;;;;15.38;11.02;;;;;;;2.01;100.00;99937.56;4895150;29;20127;-76
2021/11/30 03:16:07;;;;;;;13.98;10.38;;;;;;;1.92;100.00;99926.16;4864242;29;20463;-76
2021/11/30 03:18:36;;;;;;;17.38;9.80;;;;;;;2.09;100.00;99932.69;4896200;29;20407;-77
2021/11/30 03:21:05;;;;;;;14.05;10.15;;;;;;;2.06;100.00;99908.78;4865350;29;20043;-76
2021/11/30 03:23:31;;;;;;;14.63;10.95;;;;;;;2.05;100.00;99907.94;4881404;29;20064;-76
2021/11/30 03:25:57;;;;;;;13.75;9.93;;;;;;;2.02;100.00;99903.03;4867665;29;20051;-76
2021/11/30 03:28:22;;;;;;;15.70;10.05;;;;;;;2.06;100.00;99888.91;4895901;29;20041;-77
2021/11/30 03:31:01;;;;;;;13.63;10.98;;;;;;;1.99;100.00;99882.53;4894125;29;20033;-76
2021/11/30 03:36:11;;;;;;;16.50;11.20;;;;;;;2.03;100.00;99863.25;4879843;29;20104;-76
2021/11/30 03:38:37;;;;;;;13.27;11.18;;;;;;;1.92;100.00;99853.72;4884073;29;20079;-76
2021/11/30 03:41:02;;;;;;;16.75;11.02;;;;;;;1.88;100.00;99839.34;4895262;29;20124;-76
2021/11/30 03:43:28;;;;;;;16.00;11.20;;;;;;;1.88;100.00;99830.78;4896260;29;20481;-76
2021/11/30 03:45:54;;;;;;;14.32;10.98;;;;;;;1.90;100.00;99829.75;4897686;29;20032;-76
2021/11/30 03:48:20;;;;;;;13.65;10.23;;;;;;;1.93;100.00;99813.97;4868640;29;20044;-76
2021/11/30 03:50:46;;;;;;;14.10;10.60;;;;;;;1.88;100.00;99810.91;4878924;29;20040;-74
2021/11/30 03:53:11;;;;;;;14.07;11.02;;;;;;;1.87;100.00;99795.53;4893477;29;20050;-76
2021/11/30 03:55:37;;;;;;;15.45;11.55;;;;;;;1.89;100.00;99791.88;4900138;29;20136;-76
2021/11/30 03:58:02;;;;;;;12.65;10.57;;;;;;;1.86;100.00;99781.75;4882416;29;20114;-76
2021/11/30 04:00:28;;;;;;;13.02;10.23;;;;;;;1.90;100.00;99756.50;4880642;29;20050;-76
2021/11/30 04:02:54;;;;;;;14.15;10.10;;;;;;;1.86;100.00;99753.31;4897072;29;20609;-77
2021/11/30 04:05:20;;;;;;;11.48;9.27;;;;;;;1.89;100.00;99744.50;4895782;29;20076;-76
2021/11/30 04:07:46;;;;;;;13.40;10.20;;;;;;;1.88;100.00;99735.09;4874829;29;20108;-76
2021/11/30 04:10:11;;;;;;;12.15;9.52;;;;;;;1.84;100.00;99718.16;4885884;29;20041;-76
2021/11/30 04:12:37;;;;;;;10.48;8.80;;;;;;;1.77;100.00;99712.63;4893641;29;20059;-76
2021/11/30 04:15:03;;;;;;;10.40;8.45;;;;;;;1.83;100.00;99719.09;4862988;29;20119;-77
2021/11/30 04:17:29;;;;;;;11.27;9.05;;;;;;;1.88;100.00;99696.31;4895666;29;20047;-76
2021/11/30 04:19:55;;;;;;;10.95;8.07;;;;;;;1.84;100.00;99681.97;4878812;29;20422;-76
2021/11/30 04:22:20;;;;;;;11.57;9.68;;;;;;;1.84;100.00;99692.31;4893059;29;20073;-76
2021/11/30 04:24:46;;;;;;;10.90;8.98;;;;;;;1.88;100.00;99673.03;4879968;29;20044;-76
2021/11/30 04:27:12;;;;;;;9.25;8.18;;;;;;;1.86;100.00;99662.78;4901399;29;20040;-75
2021/11/30 04:29:39;;;;;;;10.25;8.45;;;;;;;1.85;100.00;99647.41;4884552;29;20040;-76
2021/11/30 04:32:05;;;;;;;11.02;8.65;;;;;;;1.95;100.00;99648.34;4900488;29;20037;-76
2021/11/30 04:34:31;;;;;;;10.38;8.90;;;;;;;1.89;100.00;99644.47;4885627;29;20041;-76
2021/11/30 04:36:57;;;;;;;10.18;8.23;;;;;;;1.90;100.00;99630.63;4869744;29;20096;-76
2021/11/30 04:39:23;;;;;;;8.10;7.00;;;;;;;1.87;100.00;99609.34;4869855;29;20050;-77
2021/11/30 04:41:48;;;;;;;10.60;7.53;;;;;;;1.92;100.00;99602.88;4900461;29;20340;-76
2021/11/30 04:44:16;;;;;;;12.30;8.30;;;;;;;1.94;100.00;99607.91;4897297;29;20059;-76
2021/11/30 04:47:30;;;;;;;14.68;8.18;;;;;;;2.00;100.00;99594.50;4868319;29;20067;-76
2021/11/30 04:52:04;;;;;;;8.20;7.40;;;;;;;2.13;100.00;99581.44;4899756;29;20037;-76
2021/11/30 04:54:30;;;;;;;9.90;8.18;;;;;;;1.99;100.00;99572.16;4897194;29;20499;-76
2021/11/30 04:56:56;;;;;;;9.88;8.10;;;;;;;2.13;100.00;99573.69;4870605;29;20040;-76
2021/11/30 04:59:23;;;;;;;8.57;7.75;;;;;;;2.13;100.00;99561.56;4884693;29;20037;-77
2021/11/30 05:01:49;;;;;;;11.48;8.20;;;;;;;2.17;100.00;99562.16;4886996;29;20045;-77
2021/11/30 05:04:16;;;;;;;9.60;7.78;;;;;;;2.15;100.00;99551.09;4872668;29;20040;-76
2021/11/30 05:06:43;;;;;;;8.02;7.32;;;;;;;2.23;100.00;99553.88;4888307;29;20040;-77
2021/11/30 05:09:10;;;;;;;9.30;7.43;;;;;;;2.22;100.00;99552.22;4889224;29;20036;-76
2021/11/30 05:11:37;;;;;;;7.88;7.03;;;;;;;2.26;100.00;99527.78;4902964;29;20067;-76
2021/11/30 05:14:06;;;;;;;7.40;6.35;;;;;;;2.31;100.00;99538.56;4902730;29;20044;-76
2021/11/30 05:16:33;;;;;;;7.75;6.97;;;;;;;2.30;100.00;99538.72;4902333;29;20051;-76
2021/11/30 05:18:59;;;;;;;7.70;6.40;;;;;;;2.33;100.00;99520.34;4902020;29;20324;-76
2021/11/30 05:21:26;;;;;;;8.18;6.70;;;;;;;2.38;100.00;99507.03;4883439;29;20534;-76
2021/11/30 05:23:54;;;;;;;10.68;6.90;;;;;;;2.32;100.00;99500.59;4869755;29;20040;-76
2021/11/30 05:26:19;;;;;;;8.30;6.72;;;;;;;2.37;100.00;99511.38;4884107;29;20044;-76
2021/11/30 05:28:45;;;;;;;6.63;6.03;;;;;;;2.45;100.00;99500.38;4884018;29;20126;-77
2021/11/30 05:31:13;;;;;;;6.95;6.20;;;;;;;2.44;100.00;99497.00;4884780;29;20128;-76
2021/11/30 05:33:39;;;;;;;6.30;5.70;;;;;;;2.50;100.00;99487.91;4901236;29;20039;-76
2021/11/30 05:36:05;;;;;;;6.47;5.82;;;;;;;2.52;100.00;99475.66;4885915;29;20044;-75
2021/11/30 05:38:33;;;;;;;6.78;6.18;;;;;;;2.48;100.00;99480.25;4881909;29;20099;-75
2021/11/30 05:40:58;;;;;;;8.32;6.75;;;;;;;2.56;100.00;99463.28;4897762;29;20411;-77
2021/11/30 05:43:24;;;;;;;7.60;6.90;;;;;;;2.57;100.00;99464.94;4881184;29;20406;-77
2021/11/30 05:45:50;;;;;;;7.75;6.95;;;;;;;2.66;100.00;99466.78;4896712;29;20032;-75
2021/11/30 05:48:16;;;;;;;9.80;6.38;;;;;;;2.66;100.00;99451.25;4896124;29;20061;-77
2021/11/30 05:50:42;;;;;;;8.35;6.88;;;;;;;2.68;100.00;99447.56;4897723;29;20314;-77
2021/11/30 05:53:09;;;;;;;7.80;6.80;;;;;;;2.79;100.00;99457.03;4882168;29;20047;-76
2021/11/30 05:55:35;;;;;;;8.55;7.70;;;;;;;2.78;100.00;99454.56;4882145;29;20188;-77
2021/11/30 05:58:02;;;;;;;7.75;6.95;;;;;;;2.84;100.00;99457.44;4881057;29;20043;-77
2021/11/30 06:00:30;;;;;;;7.47;6.65;;;;;;;2.90;100.00;99448.34;4889932;29;20494;-75
2021/11/30 06:03:02;;;;;;;8.35;7.45;;;;;;;2.95;100.00;99445.38;4866965;29;20078;-76
2021/11/30 06:05:29;;;;;;;8.98;8.07;;;;;;;2.87;100.00;99413.19;4894732;29;20045;-76
2021/11/30 06:07:55;;;;;;;9.23;8.23;;;;;;;2.96;100.00;99421.09;4882664;29;20459;-76
2021/11/30 06:10:21;;;;;;;9.32;8.40;;;;;;;3.00;100.00;99428.50;4894430;29;20041;-77
2021/11/30 06:12:47;;;;;;;8.65;7.88;;;;;;;3.09;100.00;99432.09;4866461;29;20566;-77
2021/11/30 06:15:14;;;;;;;9.70;8.77;;;;;;;3.05;100.00;99422.91;4866151;29;20050;-75
2021/11/30 06:17:39;;;;;;;9.52;8.52;;;;;;;3.14;100.00;99434.28;4867313;29;20061;-76
2021/11/30 06:20:06;;;;;;;9.85;8.73;;;;;;;3.11;100.00;99418.06;4882975;29;20049;-75
2021/11/30 06:22:33;;;;;;;11.50;9.25;;;;;;;3.06;100.00;99412.44;4898298;29;20045;-76
2021/11/30 06:24:59;;;;;;;11.77;10.30;;;;;;;3.20;100.00;99420.78;4883366;29;20495;-76
2021/11/30 06:27:24;;;;;;;11.52;10.50;;;;;;;3.24;100.00;99417.81;4895098;29;20164;-77
2021/11/30 06:29:50;;;;;;;15.85;11.20;;;;;;;3.33;100.00;99423.97;4882259;29;20064;-76
2021/11/30 06:32:16;;;;;;;13.77;12.35;;;;;;;3.28;100.00;99419.19;4897101;29;20082;-76
2021/11/30 06:34:41;;;;;;;13.80;12.45;;;;;;;3.34;100.00;99419.63;4865515;29;20033;-76
2021/11/30 06:37:08;;;;;;;16.50;14.32;;;;;;;3.21;100.00;99438.00;4873778;29;20477;-76
2021/11/30 06:39:36;;;;;;;15.48;13.93;;;;;;;3.33;100.00;99430.94;4886178;29;20483;-75
2021/11/30 06:42:02;;;;;;;17.35;15.50;;;;;;;3.38;100.00;99418.41;4867797;29;20156;-76
2021/11/30 06:44:28;;;;;;;16.80;15.00;;;;;;;3.39;100.00;99418.28;4895840;29;20044;-76
2021/11/30 06:46:55;;;;;;;17.17;15.40;;;;;;;3.51;100.00;99437.94;4882761;29;20492;-76
2021/11/30 06:49:21;;;;;;;17.25;15.30;;;;;;;3.57;100.00;99438.38;4894105;29;20051;-76
2021/11/30 06:51:46;;;;;;;20.05;15.25;;;;;;;3.54;100.00;99449.81;4883194;29;20036;-75
2021/11/30 06:54:12;;;;;;;17.15;15.35;;;;;;;3.53;100.00;99437.81;4883872;29;20051;-76
2021/11/30 06:56:38;;;;;;;16.50;13.93;;;;;;;3.62;100.00;99433.63;4883794;29;20400;-76
2021/11/30 06:59:03;;;;;;;18.65;14.90;;;;;;;3.63;100.00;99437.81;4868042;29;20048;-77
2021/11/30 07:01:32;;;;;;;16.02;13.77;;;;;;;3.69;100.00;99437.28;4900450;29;20048;-76
2021/11/30 07:03:58;;;;;;;16.10;12.63;;;;;;;3.70;100.00;99426.78;4889893;29;20051;-77
2021/11/30 07:06:37;;;;;;;12.00;10.70;;;;;;;3.81;100.00;99433.63;4888391;29;20033;-75
2021/11/30 07:11:52;;;;;;;12.30;10.02;;;;;;;3.94;100.00;99417.81;4886019;29;20043;-76
2021/11/30 07:14:18;;;;;;;10.73;9.27;;;;;;;4.03;100.00;99424.78;4885120;29;20041;-75
2021/11/30 07:16:45;;;;;;;13.43;9.60;;;;;;;3.98;100.00;99421.75;4880393;29;20097;-76
2021/11/30 07:19:11;;;;;;;11.85;8.57;;;;;;;4.00;100.00;99422.44;4888219;29;20079;-75
2021/11/30 07:21:37;;;;;;;12.77;8.63;;;;;;;3.97;100.00;99425.28;4896498;29;20064;-76
2021/11/30 07:24:03;;;;;;;12.40;8.35;;;;;;;3.99;100.00;99425.16;4867919;29;20040;-76
2021/11/30 07:26:28;;;;;;;10.50;8.20;;;;;;;3.96;100.00;99439.25;4898507;29;20032;-76
2021/11/30 07:28:54;;;;;;;13.55;8.45;;;;;;;4.08;100.00;99432.94;4895728;29;20045;-76
2021/11/30 07:31:20;;;;;;;15.88;7.85;;;;;;;4.05;100.00;99435.00;4866543;29;20048;-75
2021/11/30 07:33:48;;;;;;;9.35;7.13;;;;;;;4.13;100.00;99432.56;4879625;29;20036;-76
2021/11/30 07:36:17;;;;;;;13.07;6.45;;;;;;;4.24;100.00;99418.63;4878017;29;20052;-76
2021/11/30 07:38:46;;;;;;;16.70;6.18;;;;;;;4.21;100.00;99426.66;4868811;29;20051;-75
2021/11/30 07:41:13;;;;;;;14.00;6.22;;;;;;;4.19;100.00;99421.63;4898317;29;20072;-75
2021/11/30 07:43:39;;;;;;;12.25;6.10;;;;;;;4.24;100.00;99437.59;4882802;29;20060;-76
2021/11/30 07:46:06;;;;;;;8.98;6.05;;;;;;;4.28;100.00;99436.38;4914753;29;20036;-76
2021/11/30 07:48:32;;;;;;;17.05;4.88;;;;;;;4.34;100.00;99419.41;4884114;29;20060;-77
2021/11/30 07:50:59;;;;;;;22.20;5.35;;;;;;;4.43;100.00;99413.41;4882483;29;20048;-76
2021/11/30 07:53:25;;;;;;;24.08;4.90;;;;;;;4.40;100.00;99420.63;4881660;29;20049;-76
2021/11/30 07:55:52;;;;;;;20.05;3.88;;;;;;;4.47;100.00;99429.50;4882704;29;20028;-76
2021/11/30 07:58:21;;;;;;;19.48;4.20;;;;;;;4.51;100.00;99433.47;4880229;29;20047;-76
2021/11/30 08:00:49;;;;;;;21.55;4.30;;;;;;;4.54;100.00;99420.22;4877693;29;20037;-75
2021/11/30 08:03:15;;;;;;;18.08;3.78;;;;;;;4.48;100.00;99416.41;4877328;29;20112;-77
2021/11/30 08:05:41;;;;;;;27.55;3.55;;;;;;;4.50;100.00;99416.22;4897524;29;20195;-76
2021/11/30 08:08:07;;;;;;;15.73;3.08;;;;;;;4.55;100.00;99421.84;4897358;29;20507;-75
2021/11/30 08:10:33;;;;;;;22.30;2.80;;;;;;;4.48;100.00;99418.16;4879830;29;20132;-76
2021/11/30 08:12:59;;;;;;;22.65;3.50;;;;;;;4.52;100.00;99421.28;4863561;29;20104;-75
2021/11/30 08:15:25;;;;;;;22.65;2.65;;;;;;;4.55;100.00;99432.22;4892297;29;20066;-76
2021/11/30 08:17:50;;;;;;;23.35;3.17;;;;;;;4.52;100.00;99427.31;4855579;29;20111;-75
2021/11/30 08:20:17;;;;;;;19.65;2.53;;;;;;;4.56;100.00;99425.25;4874738;29;20033;-75
2021/11/30 08:22:44;;;;;;;28.73;2.70;;;;;;;4.57;100.00;99419.09;4894872;29;20043;-75
2021/11/30 08:25:10;;;;;;;22.75;2.90;;;;;;;4.54;100.00;99428.00;4890758;29;20032;-76
2021/11/30 08:27:37;;;;;;;34.17;3.10;;;;;;;4.51;100.00;99430.88;4876843;29;20591;-76
2021/11/30 08:30:05;;;;;;;28.45;3.90;;;;;;;4.55;100.00;99427.03;4878723;29;20035;-75
2021/11/30 08:32:31;;;;;;;24.83;3.10;;;;;;;4.62;100.00;99411.72;4891785;29;20037;-74
2021/11/30 08:34:57;;;;;;;25.15;3.33;;;;;;;4.58;100.00;99431.97;4878547;29;20123;-75
2021/11/30 08:37:24;;;;;;;30.58;3.67;;;;;;;4.66;100.00;99436.44;4877561;29;20123;-76
2021/11/30 08:39:52;;;;;;;28.45;3.30;;;;;;;4.64;100.00;99433.19;4893841;29;20091;-75
2021/11/30 08:42:20;;;;;;;21.90;3.17;;;;;;;4.70;100.00;99431.78;4890444;29;20104;-76
2021/11/30 08:44:48;;;;;;;27.67;3.47;;;;;;;4.68;100.00;99440.53;4891425;29;20039;-74
2021/11/30 08:47:15;;;;;;;28.27;3.40;;;;;;;4.66;100.00;99439.84;4874971;29;20059;-74
2021/11/30 08:49:41;;;;;;;30.67;4.03;;;;;;;4.64;100.00;99433.97;4892141;29;20032;-74
2021/11/30 08:52:12;;;;;;;35.50;3.88;;;;;;;4.63;100.00;99449.69;4877581;29;20380;-74
2021/11/30 08:54:37;;;;;;;45.20;4.00;;;;;;;4.67;100.00;99438.06;4877270;29;20033;-74
2021/11/30 08:57:04;;;;;;;29.55;3.78;;;;;;;4.62;100.00;99429.91;4888874;29;20459;-76
2021/11/30 08:59:29;;;;;;;32.30;4.13;;;;;;;4.67;100.00;99438.91;4873527;29;20824;-76
2021/11/30 09:01:56;;;;;;;30.95;4.00;;;;;;;4.74;100.00;99441.75;4859914;29;20041;-75
2021/11/30 09:04:22;;;;;;;30.83;3.33;;;;;;;4.72;100.00;99443.66;4901904;29;20072;-76
2021/11/30 09:06:47;;;;;;;37.85;3.83;;;;;;;4.74;100.00;99456.53;4892680;29;20481;-76
2021/11/30 09:09:14;;;;;;;32.75;3.72;;;;;;;4.76;100.00;99475.38;4861791;29;20049;-74
2021/11/30 09:11:40;;;;;;;43.03;3.70;;;;;;;4.82;100.00;99460.06;4859258;29;20076;-75
2021/11/30 09:14:07;;;;;;;29.65;3.70;;;;;;;4.81;100.00;99434.22;4875210;29;20040;-76
2021/11/30 09:16:34;;;;;;;22.50;3.65;;;;;;;4.80;100.00;99463.75;4895119;29;20463;-76
2021/11/30 09:19:01;;;;;;;29.30;3.53;;;;;;;4.81;100.00;99463.63;4857665;29;20044;-76
2021/11/30 09:21:27;;;;;;;33.33;3.38;;;;;;;4.76;100.00;99470.19;4863857;29;20067;-76
2021/11/30 09:23:54;;;;;;;33.63;3.90;;;;;;;4.86;100.00;99460.59;4881102;29;20037;-75
2021/11/30 09:26:20;;;;;;;30.13;3.42;;;;;;;4.84;100.00;99457.31;4880782;29;20345;-75
2021/11/30 09:28:46;;;;;;;35.15;3.67;;;;;;;4.84;100.00;99476.34;4883927;29;20040;-76
2021/11/30 09:31:12;;;;;;;32.50;3.30;;;;;;;4.82;100.00;99465.25;4892990;29;20119;-76
2021/11/30 09:33:39;;;;;;;27.48;3.03;;;;;;;4.81;100.00;99457.59;4892665;29;20042;-76
2021/11/30 09:36:06;;;;;;;30.05;4.65;;;;;;;4.83;100.00;99456.50;4880635;29;20071;-75
2021/11/30 09:38:33;;;;;;;25.60;3.50;;;;;;;4.85;100.00;99458.97;4862101;29;20071;-76
2021/11/30 09:41:01;;;;;;;29.00;3.80;;;;;;;4.85;100.00;99451.97;4894056;29;20083;-76
2021/11/30 09:43:29;;;;;;;27.55;3.95;;;;;;;4.83;100.00;99451.28;4896533;29;20543;-76
2021/11/30 09:45:56;;;;;;;32.10;3.35;;;;;;;4.83;100.00;99443.50;4879477;29;20036;-77
2021/11/30 09:48:22;;;;;;;30.75;3.20;;;;;;;4.88;100.00;99453.50;4877778;29;20080;-75
2021/11/30 09:50:49;;;;;;;29.65;3.63;;;;;;;4.85;100.00;99446.78;4896706;29;20056;-75
2021/11/30 09:53:15;;;;;;;31.65;3.35;;;;;;;4.94;100.00;99444.31;4865163;29;20045;-77
2021/11/30 09:55:42;;;;;;;29.48;3.33;;;;;;;4.96;100.00;99448.41;4890433;29;20040;-75
2021/11/30 09:58:08;;;;;;;29.35;3.53;;;;;;;5.07;100.00;99439.59;4893170;29;20685;-76
2021/11/30 10:00:35;;;;;;;36.80;3.78;;;;;;;5.01;100.00;99443.59;4893392;29;20044;-76
2021/11/30 10:03:02;;;;;;;29.88;3.33;;;;;;;5.12;100.00;99439.16;4861946;29;20069;-76
2021/11/30 10:05:28;;;;;;;30.55;3.50;;;;;;;5.13;100.00;99439.03;4876907;29;20651;-76
2021/11/30 10:07:56;;;;;;;28.90;3.80;;;;;;;5.09;100.00;99448.06;4870651;29;20045;-76
2021/11/30 10:10:30;;;;;;;25.80;3.00;;;;;;;5.14;100.00;99443.28;4893256;29;20033;-76
2021/11/30 10:13:05;;;;;;;33.35;3.47;;;;;;;5.18;100.00;99443.78;4892644;29;20092;-76
2021/11/30 10:15:47;;;;;;;30.88;2.90;;;;;;;5.24;100.00;99443.22;4887916;29;20032;-76
2021/11/30 10:18:27;;;;;;;30.38;3.10;;;;;;;5.42;100.00;99436.28;4892927;29;20036;-76
2021/11/30 10:21:21;;;;;;;31.80;4.03;;;;;;;5.56;100.00;99432.38;4878963;29;20377;-75
2021/11/30 10:24:01;;;;;;;27.88;3.63;;;;;;;5.72;100.00;99439.53;4873803;29;20627;-76
2021/11/30 10:26:47;;;;;;;26.95;3.55;;;;;;;5.79;100.00;99444.97;4890920;29;20040;-77
2021/11/30 10:29:15;;;;;;;22.88;3.38;;;;;;;5.92;100.00;99445.44;4893945;29;20059;-75
2021/11/30 10:31:53;;;;;;;24.60;3.63;;;;;;;5.99;100.00;99443.91;4890959;29;20526;-76
2021/11/30 10:34:22;;;;;;;33.78;3.13;;;;;;;5.89;100.00;99466.53;4891049;29;20040;-76
2021/11/30 10:36:49;;;;;;;29.75;3.40;;;;;;;5.74;100.00;99461.00;4892793;29;20025;-76
2021/11/30 10:39:21;;;;;;;27.95;3.47;;;;;;;5.65;100.00;99446.28;4878581;29;20036;-76
2021/11/30 10:41:48;;;;;;;23.87;4.00;;;;;;;5.65;100.00;99456.69;4874414;29;20044;-75
2021/11/30 10:44:14;;;;;;;20.92;3.60;;;;;;;5.58;100.00;99464.25;4877301;29;20290;-74
2021/11/30 10:46:40;;;;;;;34.42;4.50;;;;;;;5.65;100.00;99480.94;4875522;29;20036;-74
2021/11/30 10:49:06;;;;;;;33.58;4.38;;;;;;;5.57;100.00;99459.22;4892762;29;20104;-75
2021/11/30 10:51:44;;;;;;;29.83;4.18;;;;;;;5.51;100.00;99483.19;4893472;29;20032;-75
2021/11/30 10:54:10;;;;;;;27.13;4.07;;;;;;;5.58;100.00;99472.06;4873800;29;20040;-74
2021/11/30 10:56:35;;;;;;;28.38;3.83;;;;;;;5.59;100.00;99472.88;4894099;29;20504;-74
2021/11/30 10:59:01;;;;;;;29.13;4.07;;;;;;;5.79;100.00;99471.81;4878808;29;20040;-75
2021/11/30 11:01:27;;;;;;;27.75;4.18;;;;;;;6.11;100.00;99485.34;4892095;29;20043;-73
2021/11/30 11:04:05;;;;;;;27.58;3.78;;;;;;;6.34;100.00;99490.91;4878352;29;20045;-74
2021/11/30 11:06:31;;;;;;;30.65;3.83;;;;;;;6.42;100.00;99496.16;4892224;29;20037;-75
2021/11/30 11:09:02;;;;;;;28.92;4.55;;;;;;;6.38;100.00;99482.63;4889730;29;20063;-75
2021/11/30 11:11:33;;;;;;;26.55;3.70;;;;;;;6.30;100.00;99500.00;4875656;29;20036;-73
2021/11/30 11:14:00;;;;;;;28.65;4.10;;;;;;;6.14;100.00;99488.47;4878359;29;20147;-75
2021/11/30 11:16:35;;;;;;;43.95;5.10;;;;;;;5.77;100.00;99524.97;4886590;29;20033;-75
2021/11/30 11:19:05;;;;;;;26.23;4.55;;;;;;;5.61;100.00;99507.38;4877726;29;20033;-75
2021/11/30 11:21:41;;;;;;;32.35;4.72;;;;;;;5.54;100.00;99495.91;4888644;29;20044;-74
2021/11/30 11:24:22;;;;;;;41.72;4.47;;;;;;;5.37;100.00;99490.53;4862680;29;20048;-74
2021/11/30 11:26:57;;;;;;;31.23;4.72;;;;;;;5.34;100.00;99489.97;4875538;29;20112;-75
2021/11/30 11:29:25;;;;;;;33.42;4.15;;;;;;;5.31;100.00;99511.88;4891012;29;20048;-74
2021/11/30 11:31:55;;;;;;;29.95;4.63;;;;;;;5.33;100.00;99498.72;4892389;29;20403;-74
2021/11/30 11:34:28;;;;;;;27.58;4.68;;;;;;;5.38;100.00;99512.94;4869937;29;20041;-75